sensor_id;sensor_type;location;lat;lon;timestamp;P1;durP1;ratioP1;P2;durP2;ratioP2
11346;SDS011;5728;42.722;23.258;2023-05-23T00:01:02;10.83;;;7.97;;
11346;SDS011;5728;42.722;23.258;2023-05-23T00:03:31;11.27;;;7.30;;
11346;SDS011;5728;42.722;23.258;2023-05-23T00:05:58;8.60;;;6.97;;
11346;SDS011;5728;42.722;23.258;2023-05-23T00:08:26;7.77;;;6.53;;
11346;SDS011;5728;42.722;23.258;2023-05-23T00:10:52;9.87;;;6.53;;
11346;SDS011;5728;42.722;23.258;2023-05-23T00:13:19;7.83;;;4.67;;
11346;SDS011;5728;42.722;23.258;2023-05-23T00:15:47;8.27;;;6.07;;
11346;SDS011;5728;42.722;23.258;2023-05-23T00:18:14;8.90;;;5.40;;
11346;SDS011;5728;42.722;23.258;2023-05-23T00:20:41;11.27;;;6.07;;
11346;SDS011;5728;42.722;23.258;2023-05-23T00:23:08;6.50;;;4.97;;
11346;SDS011;5728;42.722;23.258;2023-05-23T00:25:43;7.50;;;5.40;;
11346;SDS011;5728;42.722;23.258;2023-05-23T00:28:12;7.13;;;5.10;;
11346;SDS011;5728;42.722;23.258;2023-05-23T00:30:39;6.50;;;4.97;;
11346;SDS011;5728;42.722;23.258;2023-05-23T00:33:08;17.37;;;5.57;;
11346;SDS011;5728;42.722;23.258;2023-05-23T00:35:37;8.33;;;5.33;;
11346;SDS011;5728;42.722;23.258;2023-05-23T00:38:04;7.53;;;5.30;;
11346;SDS011;5728;42.722;23.258;2023-05-23T00:40:31;7.93;;;5.00;;
11346;SDS011;5728;42.722;23.258;2023-05-23T00:42:59;5.87;;;4.80;;
11346;SDS011;5728;42.722;23.258;2023-05-23T00:45:26;6.07;;;5.07;;
11346;SDS011;5728;42.722;23.258;2023-05-23T00:47:52;6.03;;;4.93;;
11346;SDS011;5728;42.722;23.258;2023-05-23T00:50:21;6.17;;;5.27;;
11346;SDS011;5728;42.722;23.258;2023-05-23T00:52:47;7.03;;;5.33;;
11346;SDS011;5728;42.722;23.258;2023-05-23T00:55:15;9.13;;;7.17;;
11346;SDS011;5728;42.722;23.258;2023-05-23T00:57:42;10.10;;;7.90;;
11346;SDS011;5728;42.722;23.258;2023-05-23T01:00:09;13.10;;;8.80;;
11346;SDS011;5728;42.722;23.258;2023-05-23T01:02:37;13.73;;;9.07;;
11346;SDS011;5728;42.722;23.258;2023-05-23T01:05:07;11.40;;;8.63;;
11346;SDS011;5728;42.722;23.258;2023-05-23T01:07:36;10.57;;;8.07;;
11346;SDS011;5728;42.722;23.258;2023-05-23T01:10:03;7.97;;;6.77;;
11346;SDS011;5728;42.722;23.258;2023-05-23T01:12:33;10.80;;;5.73;;
11346;SDS011;5728;42.722;23.258;2023-05-23T01:15:12;5.00;;;4.40;;
11346;SDS011;5728;42.722;23.258;2023-05-23T01:17:43;5.17;;;4.30;;
11346;SDS011;5728;42.722;23.258;2023-05-23T01:20:16;5.87;;;4.80;;
11346;SDS011;5728;42.722;23.258;2023-05-23T01:23:03;6.60;;;4.97;;
11346;SDS011;5728;42.722;23.258;2023-05-23T01:26:09;6.53;;;4.00;;
11346;SDS011;5728;42.722;23.258;2023-05-23T01:28:46;4.47;;;3.43;;
11346;SDS011;5728;42.722;23.258;2023-05-23T01:31:17;4.70;;;3.67;;
11346;SDS011;5728;42.722;23.258;2023-05-23T01:33:45;5.77;;;3.67;;
11346;SDS011;5728;42.722;23.258;2023-05-23T01:36:15;4.47;;;3.83;;
11346;SDS011;5728;42.722;23.258;2023-05-23T01:38:42;6.17;;;4.53;;
11346;SDS011;5728;42.722;23.258;2023-05-23T01:41:08;7.33;;;4.57;;
11346;SDS011;5728;42.722;23.258;2023-05-23T01:43:35;4.13;;;3.73;;
11346;SDS011;5728;42.722;23.258;2023-05-23T01:46:04;6.80;;;4.33;;
11346;SDS011;5728;42.722;23.258;2023-05-23T01:48:32;9.53;;;4.80;;
11346;SDS011;5728;42.722;23.258;2023-05-23T01:51:00;6.27;;;4.97;;
11346;SDS011;5728;42.722;23.258;2023-05-23T01:53:27;14.80;;;5.07;;
11346;SDS011;5728;42.722;23.258;2023-05-23T01:55:55;5.00;;;4.47;;
11346;SDS011;5728;42.722;23.258;2023-05-23T01:58:22;8.77;;;5.00;;
11346;SDS011;5728;42.722;23.258;2023-05-23T02:00:50;8.67;;;5.10;;
11346;SDS011;5728;42.722;23.258;2023-05-23T02:03:18;7.13;;;4.73;;
11346;SDS011;5728;42.722;23.258;2023-05-23T02:05:45;9.33;;;4.37;;
11346;SDS011;5728;42.722;23.258;2023-05-23T02:08:11;5.13;;;4.60;;
11346;SDS011;5728;42.722;23.258;2023-05-23T02:10:38;7.47;;;4.40;;
11346;SDS011;5728;42.722;23.258;2023-05-23T02:13:05;6.63;;;4.60;;
11346;SDS011;5728;42.722;23.258;2023-05-23T02:15:31;7.73;;;4.33;;
11346;SDS011;5728;42.722;23.258;2023-05-23T02:17:58;8.77;;;4.70;;
11346;SDS011;5728;42.722;23.258;2023-05-23T02:20:27;5.23;;;4.40;;
11346;SDS011;5728;42.722;23.258;2023-05-23T02:22:54;10.23;;;4.63;;
11346;SDS011;5728;42.722;23.258;2023-05-23T02:25:21;7.10;;;4.10;;
11346;SDS011;5728;42.722;23.258;2023-05-23T02:27:47;7.40;;;4.57;;
11346;SDS011;5728;42.722;23.258;2023-05-23T02:30:14;5.23;;;4.53;;
11346;SDS011;5728;42.722;23.258;2023-05-23T02:32:41;11.67;;;5.23;;
11346;SDS011;5728;42.722;23.258;2023-05-23T02:35:08;16.70;;;5.57;;
11346;SDS011;5728;42.722;23.258;2023-05-23T02:37:37;7.63;;;5.00;;
11346;SDS011;5728;42.722;23.258;2023-05-23T02:40:04;5.47;;;4.77;;
11346;SDS011;5728;42.722;23.258;2023-05-23T02:42:32;6.80;;;4.30;;
11346;SDS011;5728;42.722;23.258;2023-05-23T02:44:59;5.87;;;4.93;;
11346;SDS011;5728;42.722;23.258;2023-05-23T02:47:25;9.53;;;4.40;;
11346;SDS011;5728;42.722;23.258;2023-05-23T02:49:52;7.80;;;4.77;;
11346;SDS011;5728;42.722;23.258;2023-05-23T02:52:19;7.53;;;4.83;;
11346;SDS011;5728;42.722;23.258;2023-05-23T02:54:47;6.57;;;4.33;;
11346;SDS011;5728;42.722;23.258;2023-05-23T02:57:14;13.30;;;5.23;;
11346;SDS011;5728;42.722;23.258;2023-05-23T02:59:41;15.60;;;6.50;;
11346;SDS011;5728;42.722;23.258;2023-05-23T03:02:07;9.30;;;5.83;;
11346;SDS011;5728;42.722;23.258;2023-05-23T03:04:34;10.67;;;7.20;;
11346;SDS011;5728;42.722;23.258;2023-05-23T03:07:02;18.53;;;6.80;;
11346;SDS011;5728;42.722;23.258;2023-05-23T03:09:30;17.57;;;7.67;;
11346;SDS011;5728;42.722;23.258;2023-05-23T03:11:58;38.07;;;8.33;;
11346;SDS011;5728;42.722;23.258;2023-05-23T03:14:25;21.83;;;9.23;;
11346;SDS011;5728;42.722;23.258;2023-05-23T03:16:52;36.87;;;8.53;;
11346;SDS011;5728;42.722;23.258;2023-05-23T03:19:18;22.73;;;9.53;;
11346;SDS011;5728;42.722;23.258;2023-05-23T03:21:45;100.17;;;11.77;;
11346;SDS011;5728;42.722;23.258;2023-05-23T03:24:14;70.87;;;10.43;;
11346;SDS011;5728;42.722;23.258;2023-05-23T03:26:41;112.57;;;11.07;;
11346;SDS011;5728;42.722;23.258;2023-05-23T03:29:09;45.07;;;9.10;;
11346;SDS011;5728;42.722;23.258;2023-05-23T03:31:36;316.43;;;14.40;;
11346;SDS011;5728;42.722;23.258;2023-05-23T03:34:02;165.27;;;10.70;;
11346;SDS011;5728;42.722;23.258;2023-05-23T03:36:30;155.47;;;11.63;;
11346;SDS011;5728;42.722;23.258;2023-05-23T03:38:58;164.43;;;11.40;;
11346;SDS011;5728;42.722;23.258;2023-05-23T03:41:25;108.50;;;9.53;;
11346;SDS011;5728;42.722;23.258;2023-05-23T03:43:52;186.10;;;10.93;;
11346;SDS011;5728;42.722;23.258;2023-05-23T03:46:20;270.17;;;13.37;;
11346;SDS011;5728;42.722;23.258;2023-05-23T03:48:47;102.73;;;10.07;;
11346;SDS011;5728;42.722;23.258;2023-05-23T03:51:14;233.50;;;13.33;;
11346;SDS011;5728;42.722;23.258;2023-05-23T03:53:40;148.20;;;12.07;;
11346;SDS011;5728;42.722;23.258;2023-05-23T03:56:07;82.00;;;10.47;;
11346;SDS011;5728;42.722;23.258;2023-05-23T03:58:34;103.97;;;11.97;;
11346;SDS011;5728;42.722;23.258;2023-05-23T04:01:00;199.03;;;12.57;;
11346;SDS011;5728;42.722;23.258;2023-05-23T04:03:29;73.63;;;11.03;;
11346;SDS011;5728;42.722;23.258;2023-05-23T04:05:57;81.37;;;10.47;;
11346;SDS011;5728;42.722;23.258;2023-05-23T04:08:25;127.63;;;11.23;;
11346;SDS011;5728;42.722;23.258;2023-05-23T04:10:51;264.33;;;13.47;;
11346;SDS011;5728;42.722;23.258;2023-05-23T04:13:18;199.00;;;12.87;;
11346;SDS011;5728;42.722;23.258;2023-05-23T04:15:47;140.83;;;10.57;;
11346;SDS011;5728;42.722;23.258;2023-05-23T04:18:14;66.33;;;8.97;;
11346;SDS011;5728;42.722;23.258;2023-05-23T04:20:42;173.83;;;9.90;;
11346;SDS011;5728;42.722;23.258;2023-05-23T04:23:09;59.87;;;8.10;;
11346;SDS011;5728;42.722;23.258;2023-05-23T04:25:36;79.50;;;9.70;;
11346;SDS011;5728;42.722;23.258;2023-05-23T04:28:03;74.27;;;7.83;;
11346;SDS011;5728;42.722;23.258;2023-05-23T04:30:30;24.03;;;8.63;;
11346;SDS011;5728;42.722;23.258;2023-05-23T04:32:57;102.20;;;9.47;;
11346;SDS011;5728;42.722;23.258;2023-05-23T04:35:25;45.47;;;9.27;;
11346;SDS011;5728;42.722;23.258;2023-05-23T04:37:53;10.67;;;8.03;;
11346;SDS011;5728;42.722;23.258;2023-05-23T04:40:20;32.00;;;9.70;;
11346;SDS011;5728;42.722;23.258;2023-05-23T04:42:47;64.53;;;10.13;;
11346;SDS011;5728;42.722;23.258;2023-05-23T04:45:15;157.47;;;9.33;;
11346;SDS011;5728;42.722;23.258;2023-05-23T04:47:43;48.07;;;7.70;;
11346;SDS011;5728;42.722;23.258;2023-05-23T04:50:10;13.97;;;8.27;;
11346;SDS011;5728;42.722;23.258;2023-05-23T04:52:38;101.40;;;9.73;;
11346;SDS011;5728;42.722;23.258;2023-05-23T04:55:07;37.60;;;8.43;;
11346;SDS011;5728;42.722;23.258;2023-05-23T04:57:34;23.77;;;8.33;;
11346;SDS011;5728;42.722;23.258;2023-05-23T05:00:01;77.10;;;8.97;;
11346;SDS011;5728;42.722;23.258;2023-05-23T05:02:31;127.63;;;9.87;;
11346;SDS011;5728;42.722;23.258;2023-05-23T05:04:59;40.37;;;7.73;;
11346;SDS011;5728;42.722;23.258;2023-05-23T05:07:26;16.73;;;7.90;;
11346;SDS011;5728;42.722;23.258;2023-05-23T05:09:53;47.47;;;8.67;;
11346;SDS011;5728;42.722;23.258;2023-05-23T05:12:21;84.60;;;10.17;;
11346;SDS011;5728;42.722;23.258;2023-05-23T05:14:48;15.43;;;7.27;;
11346;SDS011;5728;42.722;23.258;2023-05-23T05:17:15;25.30;;;8.13;;
11346;SDS011;5728;42.722;23.258;2023-05-23T05:19:43;59.80;;;9.43;;
11346;SDS011;5728;42.722;23.258;2023-05-23T05:22:10;13.40;;;7.47;;
11346;SDS011;5728;42.722;23.258;2023-05-23T05:24:37;32.97;;;8.70;;
11346;SDS011;5728;42.722;23.258;2023-05-23T05:27:05;55.37;;;9.77;;
11346;SDS011;5728;42.722;23.258;2023-05-23T05:29:35;22.93;;;8.73;;
11346;SDS011;5728;42.722;23.258;2023-05-23T05:32:02;51.57;;;10.00;;
11346;SDS011;5728;42.722;23.258;2023-05-23T05:34:29;75.33;;;11.37;;
11346;SDS011;5728;42.722;23.258;2023-05-23T05:36:55;27.37;;;9.47;;
11346;SDS011;5728;42.722;23.258;2023-05-23T05:39:23;17.80;;;9.77;;
11346;SDS011;5728;42.722;23.258;2023-05-23T05:41:51;26.50;;;10.23;;
11346;SDS011;5728;42.722;23.258;2023-05-23T05:44:17;14.80;;;10.07;;
11346;SDS011;5728;42.722;23.258;2023-05-23T05:46:46;21.33;;;9.80;;
11346;SDS011;5728;42.722;23.258;2023-05-23T05:49:13;14.87;;;9.53;;
11346;SDS011;5728;42.722;23.258;2023-05-23T05:51:40;24.27;;;9.57;;
11346;SDS011;5728;42.722;23.258;2023-05-23T05:54:07;46.20;;;11.03;;
11346;SDS011;5728;42.722;23.258;2023-05-23T05:56:35;17.40;;;10.87;;
11346;SDS011;5728;42.722;23.258;2023-05-23T05:59:02;38.87;;;12.10;;
11346;SDS011;5728;42.722;23.258;2023-05-23T06:01:30;14.00;;;9.93;;
11346;SDS011;5728;42.722;23.258;2023-05-23T06:04:00;14.40;;;10.57;;
11346;SDS011;5728;42.722;23.258;2023-05-23T06:06:27;22.83;;;10.33;;
11346;SDS011;5728;42.722;23.258;2023-05-23T06:08:53;15.17;;;10.37;;
11346;SDS011;5728;42.722;23.258;2023-05-23T06:11:20;16.80;;;11.07;;
11346;SDS011;5728;42.722;23.258;2023-05-23T06:13:47;14.90;;;10.27;;
11346;SDS011;5728;42.722;23.258;2023-05-23T06:16:13;15.60;;;9.47;;
11346;SDS011;5728;42.722;23.258;2023-05-23T06:18:40;14.57;;;10.10;;
11346;SDS011;5728;42.722;23.258;2023-05-23T06:21:09;13.33;;;10.30;;
11346;SDS011;5728;42.722;23.258;2023-05-23T06:23:36;13.70;;;10.60;;
11346;SDS011;5728;42.722;23.258;2023-05-23T06:26:03;15.70;;;10.47;;
11346;SDS011;5728;42.722;23.258;2023-05-23T06:28:32;20.10;;;9.45;;
11346;SDS011;5728;42.722;23.258;2023-05-23T06:31:00;16.48;;;10.40;;
11346;SDS011;5728;42.722;23.258;2023-05-23T06:33:27;11.75;;;9.32;;
11346;SDS011;5728;42.722;23.258;2023-05-23T06:35:53;16.73;;;10.77;;
11346;SDS011;5728;42.722;23.258;2023-05-23T06:38:22;15.45;;;10.00;;
11346;SDS011;5728;42.722;23.258;2023-05-23T06:40:49;13.80;;;10.73;;
11346;SDS011;5728;42.722;23.258;2023-05-23T06:43:15;14.43;;;9.88;;
11346;SDS011;5728;42.722;23.258;2023-05-23T06:45:44;13.07;;;10.23;;
11346;SDS011;5728;42.722;23.258;2023-05-23T06:48:11;18.92;;;10.43;;
11346;SDS011;5728;42.722;23.258;2023-05-23T06:50:38;16.45;;;10.35;;
11346;SDS011;5728;42.722;23.258;2023-05-23T06:53:06;12.00;;;9.50;;
11346;SDS011;5728;42.722;23.258;2023-05-23T06:55:34;13.18;;;9.65;;
11346;SDS011;5728;42.722;23.258;2023-05-23T06:58:01;13.00;;;10.20;;
11346;SDS011;5728;42.722;23.258;2023-05-23T07:00:28;14.25;;;10.80;;
11346;SDS011;5728;42.722;23.258;2023-05-23T07:02:55;14.77;;;10.27;;
11346;SDS011;5728;42.722;23.258;2023-05-23T07:05:26;13.13;;;10.00;;
11346;SDS011;5728;42.722;23.258;2023-05-23T07:07:53;18.85;;;10.07;;
11346;SDS011;5728;42.722;23.258;2023-05-23T07:10:20;15.25;;;9.73;;
11346;SDS011;5728;42.722;23.258;2023-05-23T07:12:49;13.45;;;9.35;;
11346;SDS011;5728;42.722;23.258;2023-05-23T07:15:16;18.08;;;11.65;;
11346;SDS011;5728;42.722;23.258;2023-05-23T07:17:43;25.75;;;10.63;;
11346;SDS011;5728;42.722;23.258;2023-05-23T07:20:10;18.38;;;10.52;;
11346;SDS011;5728;42.722;23.258;2023-05-23T07:22:37;22.73;;;11.20;;
11346;SDS011;5728;42.722;23.258;2023-05-23T07:25:04;14.82;;;10.25;;
11346;SDS011;5728;42.722;23.258;2023-05-23T07:27:31;15.75;;;10.25;;
11346;SDS011;5728;42.722;23.258;2023-05-23T07:30:00;14.52;;;11.07;;
11346;SDS011;5728;42.722;23.258;2023-05-23T07:32:27;15.65;;;11.20;;
11346;SDS011;5728;42.722;23.258;2023-05-23T07:34:53;15.25;;;10.85;;
11346;SDS011;5728;42.722;23.258;2023-05-23T07:37:20;13.95;;;11.65;;
11346;SDS011;5728;42.722;23.258;2023-05-23T07:39:48;15.07;;;10.68;;
11346;SDS011;5728;42.722;23.258;2023-05-23T07:42:15;16.90;;;11.52;;
11346;SDS011;5728;42.722;23.258;2023-05-23T07:44:41;13.23;;;11.13;;
11346;SDS011;5728;42.722;23.258;2023-05-23T07:47:10;12.45;;;10.23;;
11346;SDS011;5728;42.722;23.258;2023-05-23T07:49:37;18.38;;;11.27;;
11346;SDS011;5728;42.722;23.258;2023-05-23T07:52:04;17.10;;;11.05;;
11346;SDS011;5728;42.722;23.258;2023-05-23T07:54:31;18.70;;;11.00;;
11346;SDS011;5728;42.722;23.258;2023-05-23T07:56:58;14.90;;;10.25;;
11346;SDS011;5728;42.722;23.258;2023-05-23T07:59:25;16.02;;;10.57;;
11346;SDS011;5728;42.722;23.258;2023-05-23T08:01:51;14.27;;;10.52;;
11346;SDS011;5728;42.722;23.258;2023-05-23T08:04:19;13.77;;;10.70;;
11346;SDS011;5728;42.722;23.258;2023-05-23T08:06:46;23.35;;;12.20;;
11346;SDS011;5728;42.722;23.258;2023-05-23T08:09:13;21.25;;;13.35;;
11346;SDS011;5728;42.722;23.258;2023-05-23T08:11:40;20.85;;;14.80;;
11346;SDS011;5728;42.722;23.258;2023-05-23T08:14:07;20.02;;;13.45;;
11346;SDS011;5728;42.722;23.258;2023-05-23T08:16:34;26.65;;;14.82;;
11346;SDS011;5728;42.722;23.258;2023-05-23T08:19:01;28.23;;;14.40;;
11346;SDS011;5728;42.722;23.258;2023-05-23T08:21:30;32.17;;;16.92;;
11346;SDS011;5728;42.722;23.258;2023-05-23T08:23:57;33.65;;;17.67;;
11346;SDS011;5728;42.722;23.258;2023-05-23T08:26:24;32.35;;;17.85;;
11346;SDS011;5728;42.722;23.258;2023-05-23T08:28:58;28.10;;;17.13;;
11346;SDS011;5728;42.722;23.258;2023-05-23T08:31:26;29.00;;;18.63;;
11346;SDS011;5728;42.722;23.258;2023-05-23T08:33:53;28.65;;;17.92;;
11346;SDS011;5728;42.722;23.258;2023-05-23T08:36:20;34.38;;;19.08;;
11346;SDS011;5728;42.722;23.258;2023-05-23T08:38:48;38.22;;;23.58;;
11346;SDS011;5728;42.722;23.258;2023-05-23T08:41:17;39.67;;;25.08;;
11346;SDS011;5728;42.722;23.258;2023-05-23T08:43:45;36.78;;;22.88;;
11346;SDS011;5728;42.722;23.258;2023-05-23T08:46:12;43.75;;;23.75;;
11346;SDS011;5728;42.722;23.258;2023-05-23T08:48:41;32.50;;;21.60;;
11346;SDS011;5728;42.722;23.258;2023-05-23T08:51:08;34.30;;;22.13;;
11346;SDS011;5728;42.722;23.258;2023-05-23T08:53:36;37.72;;;20.98;;
11346;SDS011;5728;42.722;23.258;2023-05-23T08:56:08;29.05;;;18.27;;
11346;SDS011;5728;42.722;23.258;2023-05-23T08:58:35;26.75;;;19.48;;
11346;SDS011;5728;42.722;23.258;2023-05-23T09:01:04;30.77;;;15.93;;
11346;SDS011;5728;42.722;23.258;2023-05-23T09:03:33;21.70;;;11.77;;
11346;SDS011;5728;42.722;23.258;2023-05-23T09:06:01;20.10;;;11.73;;
11346;SDS011;5728;42.722;23.258;2023-05-23T09:08:28;19.80;;;12.07;;
11346;SDS011;5728;42.722;23.258;2023-05-23T09:10:55;17.00;;;10.32;;
11346;SDS011;5728;42.722;23.258;2023-05-23T09:13:23;23.83;;;11.68;;
11346;SDS011;5728;42.722;23.258;2023-05-23T09:16:02;21.05;;;11.50;;
11346;SDS011;5728;42.722;23.258;2023-05-23T09:18:32;14.50;;;8.70;;
11346;SDS011;5728;42.722;23.258;2023-05-23T09:21:00;16.58;;;7.60;;
11346;SDS011;5728;42.722;23.258;2023-05-23T09:23:28;12.05;;;6.75;;
11346;SDS011;5728;42.722;23.258;2023-05-23T09:25:59;10.02;;;6.88;;
11346;SDS011;5728;42.722;23.258;2023-05-23T09:28:29;8.73;;;5.30;;
11346;SDS011;5728;42.722;23.258;2023-05-23T09:30:57;5.18;;;4.15;;
11346;SDS011;5728;42.722;23.258;2023-05-23T09:33:27;11.85;;;5.43;;
11346;SDS011;5728;42.722;23.258;2023-05-23T09:35:58;13.25;;;4.85;;
11346;SDS011;5728;42.722;23.258;2023-05-23T09:38:25;9.25;;;4.93;;
11346;SDS011;5728;42.722;23.258;2023-05-23T09:40:53;12.95;;;4.93;;
11346;SDS011;5728;42.722;23.258;2023-05-23T09:43:22;7.03;;;4.32;;
11346;SDS011;5728;42.722;23.258;2023-05-23T09:45:51;7.82;;;4.20;;
11346;SDS011;5728;42.722;23.258;2023-05-23T09:48:19;4.60;;;3.40;;
11346;SDS011;5728;42.722;23.258;2023-05-23T09:50:45;10.45;;;4.28;;
11346;SDS011;5728;42.722;23.258;2023-05-23T09:53:15;5.30;;;3.40;;
11346;SDS011;5728;42.722;23.258;2023-05-23T09:55:45;7.88;;;3.90;;
11346;SDS011;5728;42.722;23.258;2023-05-23T09:58:13;7.57;;;3.70;;
11346;SDS011;5728;42.722;23.258;2023-05-23T10:00:43;5.95;;;3.40;;
11346;SDS011;5728;42.722;23.258;2023-05-23T10:03:13;8.82;;;3.92;;
11346;SDS011;5728;42.722;23.258;2023-05-23T10:05:43;6.75;;;4.05;;
11346;SDS011;5728;42.722;23.258;2023-05-23T10:08:13;4.35;;;3.10;;
11346;SDS011;5728;42.722;23.258;2023-05-23T10:14:08;5.55;;;3.30;;
11346;SDS011;5728;42.722;23.258;2023-05-23T10:16:37;8.93;;;3.22;;
11346;SDS011;5728;42.722;23.258;2023-05-23T10:19:12;7.50;;;3.40;;
11346;SDS011;5728;42.722;23.258;2023-05-23T10:21:48;7.15;;;3.05;;
11346;SDS011;5728;42.722;23.258;2023-05-23T10:24:20;4.82;;;2.97;;
11346;SDS011;5728;42.722;23.258;2023-05-23T10:26:48;6.22;;;3.67;;
11346;SDS011;5728;42.722;23.258;2023-05-23T10:29:15;6.13;;;3.28;;
11346;SDS011;5728;42.722;23.258;2023-05-23T10:31:42;6.80;;;3.50;;
11346;SDS011;5728;42.722;23.258;2023-05-23T10:34:13;6.93;;;2.97;;
11346;SDS011;5728;42.722;23.258;2023-05-23T10:36:48;6.68;;;3.60;;
11346;SDS011;5728;42.722;23.258;2023-05-23T10:39:23;5.50;;;3.20;;
11346;SDS011;5728;42.722;23.258;2023-05-23T10:41:59;5.65;;;3.13;;
11346;SDS011;5728;42.722;23.258;2023-05-23T10:44:31;3.67;;;3.25;;
11346;SDS011;5728;42.722;23.258;2023-05-23T10:46:58;3.42;;;2.83;;
11346;SDS011;5728;42.722;23.258;2023-05-23T10:49:40;3.70;;;3.22;;
11346;SDS011;5728;42.722;23.258;2023-05-23T10:52:08;9.25;;;2.80;;
11346;SDS011;5728;42.722;23.258;2023-05-23T10:54:36;5.22;;;3.78;;
11346;SDS011;5728;42.722;23.258;2023-05-23T10:57:08;5.57;;;3.25;;
11346;SDS011;5728;42.722;23.258;2023-05-23T10:59:37;4.93;;;3.17;;
11346;SDS011;5728;42.722;23.258;2023-05-23T11:02:08;8.93;;;3.05;;
11346;SDS011;5728;42.722;23.258;2023-05-23T11:04:41;4.15;;;2.80;;
11346;SDS011;5728;42.722;23.258;2023-05-23T11:10:03;6.75;;;3.15;;
11346;SDS011;5728;42.722;23.258;2023-05-23T11:12:37;6.53;;;3.35;;
11346;SDS011;5728;42.722;23.258;2023-05-23T11:17:50;3.85;;;3.05;;
11346;SDS011;5728;42.722;23.258;2023-05-23T11:20:19;9.13;;;3.55;;
11346;SDS011;5728;42.722;23.258;2023-05-23T11:22:58;3.25;;;2.95;;
11346;SDS011;5728;42.722;23.258;2023-05-23T11:25:38;4.15;;;2.58;;
11346;SDS011;5728;42.722;23.258;2023-05-23T11:28:07;4.95;;;3.13;;
11346;SDS011;5728;42.722;23.258;2023-05-23T11:30:34;3.45;;;2.97;;
11346;SDS011;5728;42.722;23.258;2023-05-23T11:33:05;5.93;;;2.72;;
11346;SDS011;5728;42.722;23.258;2023-05-23T11:35:35;7.53;;;2.70;;
11346;SDS011;5728;42.722;23.258;2023-05-23T11:38:03;6.40;;;2.90;;
11346;SDS011;5728;42.722;23.258;2023-05-23T11:40:31;5.15;;;3.55;;
11346;SDS011;5728;42.722;23.258;2023-05-23T11:42:59;9.23;;;3.00;;
11346;SDS011;5728;42.722;23.258;2023-05-23T11:45:28;11.00;;;2.95;;
11346;SDS011;5728;42.722;23.258;2023-05-23T11:47:56;3.72;;;2.80;;
11346;SDS011;5728;42.722;23.258;2023-05-23T11:50:23;5.20;;;3.20;;
11346;SDS011;5728;42.722;23.258;2023-05-23T11:52:53;6.07;;;3.58;;
11346;SDS011;5728;42.722;23.258;2023-05-23T11:55:20;5.15;;;2.80;;
11346;SDS011;5728;42.722;23.258;2023-05-23T11:57:47;4.47;;;3.08;;
11346;SDS011;5728;42.722;23.258;2023-05-23T12:00:15;8.57;;;3.42;;
11346;SDS011;5728;42.722;23.258;2023-05-23T12:02:44;3.75;;;3.42;;
11346;SDS011;5728;42.722;23.258;2023-05-23T12:05:13;7.47;;;3.20;;
11346;SDS011;5728;42.722;23.258;2023-05-23T12:07:40;7.38;;;3.20;;
11346;SDS011;5728;42.722;23.258;2023-05-23T12:10:09;5.90;;;3.53;;
11346;SDS011;5728;42.722;23.258;2023-05-23T12:12:39;4.25;;;3.45;;
11346;SDS011;5728;42.722;23.258;2023-05-23T12:15:07;3.30;;;2.63;;
11346;SDS011;5728;42.722;23.258;2023-05-23T12:17:36;7.00;;;3.00;;
11346;SDS011;5728;42.722;23.258;2023-05-23T12:20:03;6.57;;;2.97;;
11346;SDS011;5728;42.722;23.258;2023-05-23T12:22:31;7.57;;;3.50;;
11346;SDS011;5728;42.722;23.258;2023-05-23T12:24:57;3.92;;;3.40;;
11346;SDS011;5728;42.722;23.258;2023-05-23T12:27:29;4.22;;;2.45;;
11346;SDS011;5728;42.722;23.258;2023-05-23T12:30:08;5.93;;;2.70;;
11346;SDS011;5728;42.722;23.258;2023-05-23T12:32:38;5.95;;;2.70;;
11346;SDS011;5728;42.722;23.258;2023-05-23T12:35:06;5.55;;;3.47;;
11346;SDS011;5728;42.722;23.258;2023-05-23T12:37:33;9.13;;;3.17;;
11346;SDS011;5728;42.722;23.258;2023-05-23T12:40:13;6.20;;;3.15;;
11346;SDS011;5728;42.722;23.258;2023-05-23T12:42:51;5.32;;;2.70;;
11346;SDS011;5728;42.722;23.258;2023-05-23T12:45:19;3.60;;;2.55;;
11346;SDS011;5728;42.722;23.258;2023-05-23T12:47:47;7.88;;;3.53;;
11346;SDS011;5728;42.722;23.258;2023-05-23T12:50:14;6.30;;;3.13;;
11346;SDS011;5728;42.722;23.258;2023-05-23T12:52:41;6.20;;;2.53;;
11346;SDS011;5728;42.722;23.258;2023-05-23T12:55:09;3.35;;;2.83;;
11346;SDS011;5728;42.722;23.258;2023-05-23T12:57:36;8.20;;;2.90;;
11346;SDS011;5728;42.722;23.258;2023-05-23T13:00:05;6.22;;;3.38;;
11346;SDS011;5728;42.722;23.258;2023-05-23T13:02:33;6.72;;;2.88;;
11346;SDS011;5728;42.722;23.258;2023-05-23T13:04:59;7.47;;;2.95;;
11346;SDS011;5728;42.722;23.258;2023-05-23T13:07:26;5.00;;;2.92;;
11346;SDS011;5728;42.722;23.258;2023-05-23T13:09:54;5.45;;;2.80;;
11346;SDS011;5728;42.722;23.258;2023-05-23T13:12:21;4.60;;;3.20;;
11346;SDS011;5728;42.722;23.258;2023-05-23T13:14:48;4.03;;;3.22;;
11346;SDS011;5728;42.722;23.258;2023-05-23T13:17:16;6.75;;;3.20;;
11346;SDS011;5728;42.722;23.258;2023-05-23T13:19:43;2.70;;;2.50;;
11346;SDS011;5728;42.722;23.258;2023-05-23T13:22:10;3.88;;;2.45;;
11346;SDS011;5728;42.722;23.258;2023-05-23T13:24:38;4.00;;;2.70;;
11346;SDS011;5728;42.722;23.258;2023-05-23T13:27:05;4.45;;;2.47;;
11346;SDS011;5728;42.722;23.258;2023-05-23T13:29:33;3.95;;;3.00;;
11346;SDS011;5728;42.722;23.258;2023-05-23T13:32:02;4.25;;;2.95;;
11346;SDS011;5728;42.722;23.258;2023-05-23T13:34:31;5.32;;;2.72;;
11346;SDS011;5728;42.722;23.258;2023-05-23T13:37:01;4.15;;;2.72;;
11346;SDS011;5728;42.722;23.258;2023-05-23T13:39:28;5.88;;;2.97;;
11346;SDS011;5728;42.722;23.258;2023-05-23T13:41:54;4.25;;;2.80;;
11346;SDS011;5728;42.722;23.258;2023-05-23T13:44:21;5.65;;;3.15;;
11346;SDS011;5728;42.722;23.258;2023-05-23T13:46:48;3.42;;;2.47;;
11346;SDS011;5728;42.722;23.258;2023-05-23T13:49:15;3.65;;;2.45;;
11346;SDS011;5728;42.722;23.258;2023-05-23T13:51:44;3.42;;;2.90;;
11346;SDS011;5728;42.722;23.258;2023-05-23T13:54:10;4.38;;;2.58;;
11346;SDS011;5728;42.722;23.258;2023-05-23T13:56:37;5.32;;;2.85;;
11346;SDS011;5728;42.722;23.258;2023-05-23T13:59:04;3.15;;;2.47;;
11346;SDS011;5728;42.722;23.258;2023-05-23T14:01:31;4.32;;;2.63;;
11346;SDS011;5728;42.722;23.258;2023-05-23T14:03:58;3.53;;;3.22;;
11346;SDS011;5728;42.722;23.258;2023-05-23T14:06:25;5.93;;;3.40;;
11346;SDS011;5728;42.722;23.258;2023-05-23T14:08:53;6.70;;;2.85;;
11346;SDS011;5728;42.722;23.258;2023-05-23T14:11:20;3.30;;;2.70;;
11346;SDS011;5728;42.722;23.258;2023-05-23T14:13:47;6.35;;;3.45;;
11346;SDS011;5728;42.722;23.258;2023-05-23T14:16:14;7.07;;;2.88;;
11346;SDS011;5728;42.722;23.258;2023-05-23T14:18:41;4.13;;;2.95;;
11346;SDS011;5728;42.722;23.258;2023-05-23T14:21:07;6.38;;;3.22;;
11346;SDS011;5728;42.722;23.258;2023-05-23T14:23:34;5.05;;;3.20;;
11346;SDS011;5728;42.722;23.258;2023-05-23T14:26:03;6.18;;;3.58;;
11346;SDS011;5728;42.722;23.258;2023-05-23T14:28:30;7.65;;;3.13;;
11346;SDS011;5728;42.722;23.258;2023-05-23T14:30:57;5.45;;;3.15;;
11346;SDS011;5728;42.722;23.258;2023-05-23T14:33:24;4.65;;;3.83;;
11346;SDS011;5728;42.722;23.258;2023-05-23T14:35:51;4.30;;;3.28;;
11346;SDS011;5728;42.722;23.258;2023-05-23T14:38:18;4.60;;;3.28;;
11346;SDS011;5728;42.722;23.258;2023-05-23T14:40:45;5.57;;;3.78;;
11346;SDS011;5728;42.722;23.258;2023-05-23T14:43:14;4.25;;;2.60;;
11346;SDS011;5728;42.722;23.258;2023-05-23T14:45:41;4.57;;;2.85;;
11346;SDS011;5728;42.722;23.258;2023-05-23T14:48:08;5.22;;;2.95;;
11346;SDS011;5728;42.722;23.258;2023-05-23T14:50:36;5.00;;;2.88;;